Terminal Aerodrome Forecast
Issued by NWS Sioux Falls, SD

Home | Current Version | Previous Version | Text Only | Print | Product List | Glossary On
Versions: 1 2 3 4 5 6 7 8 9 10 11 12 13 14 15 16 17 18 19 20 21 22 23 24 25 26 27 28 29 30 31 32 33 34 35 36 37 38 39 40 41 42 43 44
000
FTUS43 KFSD 260520
TAFSUX
TAF
KSUX 260520Z 2606/2706 08006KT P6SM OVC006
     FM260800 02005KT 5SM BR OVC003
     FM261600 36005KT P6SM OVC008
     FM261900 35006KT P6SM OVC010
     FM270300 01004KT P6SM OVC020=

USA.gov is the U.S. government's official web portal to all federal, state and local government web resources and services.